Time;durP1;ratioP1;P1;durP2;ratioP2;P2;SDS_P1;SDS_P2;PMS_P1;PMS_P2;Temp;Humidity;BMP_temperature;BMP_pressure;BME280_temperature;BME280_humidity;BME280_pressure;Samples;Min_cycle;Max_cycle;Signal;HPM_P1;HPM_P2
2022/01/09 00:02:03;;;;;;;3.33;2.28;;;0.60;99.90;;;;;;5026260;28;20052;-49
2022/01/09 00:04:28;;;;;;;2.15;2.00;;;0.60;99.90;;;;;;5025570;28;20410;-48
2022/01/09 00:06:54;;;;;;;2.40;2.15;;;0.60;99.90;;;;;;5013744;28;20713;-48
2022/01/09 00:09:20;;;;;;;1.60;1.52;;;0.70;99.90;;;;;;5011073;28;20029;-48
2022/01/09 00:11:45;;;;;;;2.40;1.60;;;0.70;99.90;;;;;;5011057;28;20079;-48
2022/01/09 00:14:11;;;;;;;1.80;1.70;;;0.70;99.90;;;;;;5013441;28;20075;-48
2022/01/09 00:16:37;;;;;;;3.42;2.10;;;0.70;99.90;;;;;;5008701;28;20018;-49
2022/01/09 00:19:02;;;;;;;2.45;1.98;;;0.70;99.90;;;;;;5006089;28;20037;-48
2022/01/09 00:21:28;;;;;;;1.95;1.80;;;0.70;99.90;;;;;;5011681;28;20069;-49
2022/01/09 00:23:53;;;;;;;2.55;1.70;;;0.70;99.90;;;;;;5010627;28;20050;-48
2022/01/09 00:26:19;;;;;;;1.63;1.45;;;0.70;99.90;;;;;;5008911;28;20032;-48
2022/01/09 00:28:45;;;;;;;3.60;1.90;;;0.80;99.90;;;;;;5006547;28;20056;-48
2022/01/09 00:31:10;;;;;;;2.03;1.92;;;0.80;99.90;;;;;;5006635;28;20040;-48
2022/01/09 00:33:36;;;;;;;1.80;1.70;;;0.80;99.90;;;;;;5007319;28;20096;-48
2022/01/09 00:36:02;;;;;;;3.80;1.50;;;0.80;99.90;;;;;;4998690;28;20162;-48
2022/01/09 00:38:28;;;;;;;50.92;17.85;;;0.80;99.90;;;;;;5009213;28;20033;-48
2022/01/09 00:40:53;;;;;;;3.33;2.35;;;0.80;99.90;;;;;;5009141;28;20094;-48
2022/01/09 00:43:19;;;;;;;46.25;19.70;;;0.80;99.90;;;;;;5009624;28;20044;-48
2022/01/09 00:45:45;;;;;;;11.25;5.00;;;0.80;99.90;;;;;;5007476;28;20077;-48
2022/01/09 00:48:10;;;;;;;12.05;6.20;;;0.90;99.90;;;;;;5007200;28;20091;-48
2022/01/09 00:50:38;;;;;;;21.42;7.97;;;0.90;99.90;;;;;;5009557;28;20030;-48
2022/01/09 00:53:05;;;;;;;4.40;2.22;;;0.90;99.90;;;;;;5008944;28;20494;-47
2022/01/09 00:55:30;;;;;;;9.93;4.05;;;1.00;99.90;;;;;;5009238;28;20048;-47
2022/01/09 00:57:56;;;;;;;5.20;3.20;;;1.00;99.90;;;;;;5009527;28;20041;-48
2022/01/09 01:00:22;;;;;;;22.63;10.55;;;1.10;99.90;;;;;;5015618;28;20052;-48
2022/01/09 01:02:48;;;;;;;7.28;5.20;;;1.10;99.90;;;;;;5015500;28;20967;-49
2022/01/09 01:05:13;;;;;;;7.90;5.28;;;1.10;99.90;;;;;;5016243;28;20759;-48
2022/01/09 01:07:39;;;;;;;5.72;3.78;;;1.20;99.90;;;;;;5009536;28;20029;-47
2022/01/09 01:10:05;;;;;;;4.32;3.40;;;1.30;99.90;;;;;;5012204;28;20091;-48
2022/01/09 01:12:32;;;;;;;2.80;2.33;;;1.30;99.90;;;;;;5011330;28;20572;-48
2022/01/09 01:14:58;;;;;;;2.42;2.22;;;1.30;99.90;;;;;;5008286;28;20044;-48
2022/01/09 01:17:24;;;;;;;3.83;2.30;;;1.20;99.90;;;;;;5017429;28;21885;-48
2022/01/09 01:19:52;;;;;;;4.13;3.83;;;1.30;99.90;;;;;;5007084;28;20037;-48
2022/01/09 01:22:17;;;;;;;3.85;3.55;;;1.30;99.90;;;;;;5012714;28;20033;-47
2022/01/09 01:24:43;;;;;;;2.63;2.40;;;1.30;99.90;;;;;;5011866;28;20036;-48
2022/01/09 01:27:09;;;;;;;2.40;1.58;;;1.30;99.90;;;;;;5010213;28;20528;-47
2022/01/09 01:29:36;;;;;;;1.77;1.67;;;1.30;99.90;;;;;;5009621;28;20026;-48
2022/01/09 01:32:02;;;;;;;3.00;2.80;;;1.30;99.90;;;;;;5007335;28;20034;-48
2022/01/09 01:34:28;;;;;;;3.55;3.25;;;1.30;99.90;;;;;;5011669;28;20047;-48
2022/01/09 01:36:54;;;;;;;4.05;3.65;;;1.30;99.90;;;;;;5008900;28;20030;-48
2022/01/09 01:39:19;;;;;;;4.63;4.13;;;1.30;99.90;;;;;;5010634;28;20030;-47
2022/01/09 01:41:45;;;;;;;2.67;2.42;;;1.30;99.90;;;;;;5008195;28;20089;-47
2022/01/09 01:44:12;;;;;;;1.80;1.70;;;1.30;99.90;;;;;;5010454;28;20052;-48
2022/01/09 01:46:38;;;;;;;3.28;1.67;;;1.40;99.90;;;;;;5010069;28;20099;-47
2022/01/09 01:49:05;;;;;;;1.70;1.60;;;1.40;99.90;;;;;;5009542;28;20345;-47
2022/01/09 01:51:34;;;;;;;3.50;2.83;;;1.40;99.90;;;;;;5009204;28;20034;-48
2022/01/09 01:54:01;;;;;;;1.80;1.35;;;1.30;99.90;;;;;;5010503;28;20037;-48
2022/01/09 01:56:26;;;;;;;2.25;1.75;;;1.40;99.90;;;;;;5011593;28;20044;-47
2022/01/09 01:58:53;;;;;;;2.92;1.80;;;1.40;99.90;;;;;;5007829;28;21729;-47
2022/01/09 02:01:19;;;;;;;2.28;1.60;;;1.40;99.90;;;;;;5008502;28;20065;-47
2022/01/09 02:03:44;;;;;;;1.80;1.70;;;1.40;99.90;;;;;;5008047;28;20118;-48
2022/01/09 02:06:16;;;;;;;2.35;2.15;;;1.40;99.90;;;;;;5008562;28;20497;-47
2022/01/09 02:08:43;;;;;;;1.38;1.27;;;1.40;99.90;;;;;;5007552;28;20037;-47
2022/01/09 02:11:11;;;;;;;2.65;1.52;;;1.50;99.90;;;;;;5013152;28;20037;-48
2022/01/09 02:13:40;;;;;;;1.70;1.60;;;1.50;99.90;;;;;;5010440;28;20034;-48
2022/01/09 02:16:07;;;;;;;1.70;1.60;;;1.60;99.90;;;;;;5012410;28;20034;-47
2022/01/09 02:18:33;;;;;;;1.77;1.73;;;1.60;99.90;;;;;;5008904;28;20115;-48
2022/01/09 02:20:59;;;;;;;2.03;1.85;;;1.60;99.90;;;;;;5007821;28;20109;-48
2022/01/09 02:23:25;;;;;;;2.28;1.92;;;1.70;99.90;;;;;;5011014;28;20893;-48
2022/01/09 02:25:51;;;;;;;2.65;2.45;;;1.70;99.90;;;;;;5007894;28;20033;-47
2022/01/09 02:28:17;;;;;;;1.55;1.45;;;1.80;99.90;;;;;;5012223;28;20748;-48
2022/01/09 02:30:44;;;;;;;0.90;0.90;;;1.80;99.90;;;;;;5014697;28;20168;-47
2022/01/09 02:33:14;;;;;;;1.17;1.10;;;1.80;99.90;;;;;;5009610;28;20030;-48
2022/01/09 02:35:40;;;;;;;1.42;1.33;;;1.80;99.90;;;;;;5009086;28;20108;-48
2022/01/09 02:38:06;;;;;;;0.85;0.85;;;1.80;99.90;;;;;;5009497;28;20042;-49
2022/01/09 02:40:33;;;;;;;0.90;0.90;;;1.90;99.90;;;;;;5025276;28;20116;-47
2022/01/09 02:42:59;;;;;;;3.03;2.42;;;1.90;99.90;;;;;;5007191;28;20054;-48
2022/01/09 02:45:27;;;;;;;1.95;1.85;;;1.90;99.90;;;;;;5008837;28;20725;-47
2022/01/09 02:47:55;;;;;;;1.30;1.20;;;1.90;99.90;;;;;;5010659;28;20111;-47
2022/01/09 02:52:53;;;;;;;1.13;1.10;;;2.00;99.90;;;;;;5009630;28;20049;-47
2022/01/09 02:55:20;;;;;;;0.80;0.80;;;2.00;99.90;;;;;;5009447;28;20052;-47
2022/01/09 02:57:53;;;;;;;1.02;1.02;;;2.00;99.90;;;;;;5007727;28;20367;-47
2022/01/09 03:00:25;;;;;;;1.50;1.40;;;2.00;99.90;;;;;;5014295;28;20037;-47
2022/01/09 03:02:51;;;;;;;1.27;1.27;;;2.00;99.90;;;;;;4992238;28;20073;-47
2022/01/09 03:05:17;;;;;;;0.80;0.80;;;2.10;99.90;;;;;;4992710;28;20369;-47
2022/01/09 03:07:44;;;;;;;0.80;0.80;;;2.10;99.90;;;;;;5000947;28;20116;-47
2022/01/09 03:10:11;;;;;;;0.90;0.90;;;2.10;99.90;;;;;;4997771;28;20092;-47
2022/01/09 03:12:37;;;;;;;1.50;1.40;;;2.10;99.90;;;;;;4999328;28;20029;-47
2022/01/09 03:15:04;;;;;;;0.93;0.93;;;2.20;99.90;;;;;;4998334;28;20089;-47
2022/01/09 03:17:30;;;;;;;0.60;0.60;;;2.20;99.90;;;;;;4995994;28;20034;-47
2022/01/09 03:19:55;;;;;;;1.25;1.25;;;2.30;99.90;;;;;;5000943;28;20040;-47
2022/01/09 03:22:21;;;;;;;0.73;0.73;;;2.30;99.90;;;;;;4997122;28;20042;-48
2022/01/09 03:24:47;;;;;;;0.60;0.60;;;2.40;99.90;;;;;;4997020;28;20034;-47
2022/01/09 03:27:12;;;;;;;1.10;1.10;;;2.50;99.90;;;;;;5001718;28;20022;-47
2022/01/09 03:29:39;;;;;;;0.60;0.60;;;2.60;99.90;;;;;;4994351;28;20049;-48
2022/01/09 03:32:06;;;;;;;0.70;0.70;;;2.60;99.90;;;;;;4997869;28;20038;-47
2022/01/09 03:34:32;;;;;;;2.65;0.70;;;2.70;99.90;;;;;;4998558;28;20145;-47
2022/01/09 03:36:57;;;;;;;0.80;0.80;;;2.70;99.90;;;;;;4996388;28;20128;-48
2022/01/09 03:39:23;;;;;;;0.70;0.70;;;2.80;99.90;;;;;;4996282;28;20718;-47
2022/01/09 03:41:49;;;;;;;0.50;0.50;;;2.80;99.90;;;;;;4997431;28;20085;-47
2022/01/09 03:44:14;;;;;;;0.60;0.60;;;2.80;99.90;;;;;;4996088;28;20557;-47
2022/01/09 03:46:40;;;;;;;0.57;0.57;;;2.90;99.90;;;;;;4995203;28;20029;-47
2022/01/09 03:49:06;;;;;;;0.60;0.60;;;3.00;99.90;;;;;;4997610;28;20049;-48
2022/01/09 03:51:36;;;;;;;0.60;0.60;;;3.10;99.90;;;;;;4997956;28;20080;-47
2022/01/09 03:54:06;;;;;;;0.68;0.68;;;3.10;99.90;;;;;;4994353;28;20025;-47
2022/01/09 03:56:32;;;;;;;0.75;0.75;;;3.10;99.90;;;;;;4996585;28;20078;-47
2022/01/09 03:58:57;;;;;;;0.60;0.60;;;3.10;99.90;;;;;;5000022;28;20038;-48
2022/01/09 04:01:23;;;;;;;0.70;0.70;;;3.00;99.90;;;;;;4996509;28;20410;-47
2022/01/09 04:03:50;;;;;;;1.35;0.90;;;3.10;99.90;;;;;;4997290;28;20482;-47
2022/01/09 04:06:16;;;;;;;1.10;1.05;;;3.10;99.90;;;;;;4996806;28;20036;-47
2022/01/09 04:08:41;;;;;;;0.90;0.90;;;3.10;99.90;;;;;;4998024;28;20026;-47
2022/01/09 04:11:09;;;;;;;0.70;0.70;;;3.20;99.90;;;;;;4997139;28;22193;-48
2022/01/09 04:13:36;;;;;;;0.93;0.90;;;3.10;99.90;;;;;;4999027;28;20034;-48
2022/01/09 04:16:02;;;;;;;0.93;0.90;;;3.20;99.90;;;;;;4998465;28;20064;-48
2022/01/09 04:18:28;;;;;;;1.00;1.00;;;3.20;99.90;;;;;;4997880;28;20038;-47
2022/01/09 04:20:54;;;;;;;0.80;0.80;;;3.20;99.90;;;;;;4997647;28;20569;-47
2022/01/09 04:23:21;;;;;;;0.90;0.90;;;3.20;99.90;;;;;;4993623;28;20190;-47
2022/01/09 04:25:48;;;;;;;0.80;0.80;;;3.20;99.90;;;;;;4995305;28;20183;-47
2022/01/09 04:28:14;;;;;;;0.80;0.80;;;3.30;99.90;;;;;;4993567;28;20031;-47
2022/01/09 04:30:40;;;;;;;0.80;0.80;;;3.30;99.90;;;;;;4990596;28;20060;-47
2022/01/09 04:33:06;;;;;;;0.85;0.85;;;3.30;99.90;;;;;;4995103;28;21555;-47
2022/01/09 04:35:32;;;;;;;0.90;0.90;;;3.30;99.90;;;;;;4998793;28;20033;-47
2022/01/09 04:37:58;;;;;;;0.90;0.90;;;3.30;99.90;;;;;;5005317;28;20040;-47
2022/01/09 04:40:24;;;;;;;0.90;0.90;;;3.30;99.90;;;;;;5003576;28;20026;-47
2022/01/09 04:42:54;;;;;;;0.80;0.80;;;3.30;99.90;;;;;;5005837;28;20029;-47
2022/01/09 04:45:21;;;;;;;0.82;0.82;;;3.30;99.90;;;;;;4992996;28;20092;-47
2022/01/09 04:47:49;;;;;;;0.75;0.75;;;3.40;99.90;;;;;;5000693;28;20034;-47
2022/01/09 04:50:21;;;;;;;0.90;0.90;;;3.40;99.90;;;;;;4995645;28;20042;-48
2022/01/09 04:52:47;;;;;;;0.77;0.77;;;3.40;99.90;;;;;;4996298;28;20029;-47
2022/01/09 04:55:13;;;;;;;0.93;0.93;;;3.50;99.90;;;;;;4999631;28;20380;-47
2022/01/09 04:57:39;;;;;;;0.80;0.80;;;3.50;99.90;;;;;;4995960;28;20034;-47
2022/01/09 05:00:06;;;;;;;1.00;0.93;;;3.50;99.90;;;;;;4995144;28;20045;-47
2022/01/09 05:02:32;;;;;;;1.05;1.00;;;3.50;99.90;;;;;;4992287;28;20038;-47
2022/01/09 05:04:57;;;;;;;0.80;0.80;;;3.50;99.90;;;;;;4998014;28;20667;-47
2022/01/09 05:07:23;;;;;;;0.82;0.82;;;3.50;99.90;;;;;;4997175;28;20029;-47
2022/01/09 05:09:49;;;;;;;1.10;1.00;;;3.60;99.90;;;;;;4996672;28;20034;-47
2022/01/09 05:12:14;;;;;;;0.70;0.70;;;3.60;99.90;;;;;;4993259;28;20038;-47
2022/01/09 05:14:40;;;;;;;0.82;0.82;;;3.60;99.90;;;;;;4995120;28;20026;-47
2022/01/09 05:17:06;;;;;;;1.00;1.00;;;3.60;99.90;;;;;;4997908;28;20032;-47
2022/01/09 05:19:33;;;;;;;0.93;0.85;;;3.60;99.90;;;;;;4996973;28;20022;-47
2022/01/09 05:22:00;;;;;;;0.83;0.83;;;3.60;99.90;;;;;;4994036;28;20041;-47
2022/01/09 05:24:26;;;;;;;0.82;0.82;;;3.70;99.90;;;;;;4997919;28;20042;-47
2022/01/09 05:26:52;;;;;;;0.60;0.60;;;3.70;99.90;;;;;;4992520;28;21633;-47
2022/01/09 05:29:18;;;;;;;0.80;0.80;;;3.60;99.90;;;;;;4997831;28;20065;-47
2022/01/09 05:31:44;;;;;;;0.70;0.70;;;3.60;99.90;;;;;;4996169;28;20064;-47
2022/01/09 05:34:10;;;;;;;0.90;0.90;;;3.60;99.90;;;;;;4996794;28;20044;-47
2022/01/09 05:36:35;;;;;;;0.80;0.80;;;3.60;99.90;;;;;;4993933;28;20033;-47
2022/01/09 05:39:02;;;;;;;1.10;0.75;;;3.60;99.90;;;;;;4997392;28;20034;-47
2022/01/09 05:41:28;;;;;;;0.82;0.82;;;3.60;99.90;;;;;;5000272;28;20482;-47
2022/01/09 05:43:53;;;;;;;0.75;0.75;;;3.60;99.90;;;;;;4997500;28;20033;-46
2022/01/09 05:46:19;;;;;;;0.60;0.60;;;3.60;99.90;;;;;;4999627;28;20038;-47
2022/01/09 05:48:44;;;;;;;0.60;0.60;;;3.70;99.90;;;;;;4993082;28;20057;-47
2022/01/09 05:51:10;;;;;;;0.57;0.57;;;3.60;99.90;;;;;;4993710;28;20041;-47
2022/01/09 05:53:36;;;;;;;0.70;0.70;;;3.60;99.90;;;;;;4997205;28;20429;-47
2022/01/09 05:56:02;;;;;;;0.63;0.63;;;3.60;99.90;;;;;;4994775;28;20037;-47
2022/01/09 05:58:27;;;;;;;0.50;0.50;;;3.70;99.90;;;;;;4997497;28;20053;-47
2022/01/09 06:00:53;;;;;;;0.80;0.60;;;3.70;99.90;;;;;;4994085;28;20042;-47
2022/01/09 06:03:18;;;;;;;0.50;0.50;;;3.70;99.90;;;;;;4995860;28;20040;-47
2022/01/09 06:05:44;;;;;;;0.60;0.60;;;3.70;99.90;;;;;;4996347;28;20033;-47
2022/01/09 06:08:10;;;;;;;0.60;0.60;;;3.70;99.90;;;;;;4998122;28;20410;-47
2022/01/09 06:10:35;;;;;;;1.17;0.60;;;3.70;99.90;;;;;;4996537;28;20065;-47
2022/01/09 06:13:01;;;;;;;0.50;0.50;;;3.70;99.90;;;;;;4994658;28;20053;-46
2022/01/09 06:15:26;;;;;;;0.40;0.40;;;3.70;99.90;;;;;;4996416;28;20017;-47
2022/01/09 06:17:52;;;;;;;0.40;0.40;;;3.70;99.90;;;;;;4993884;28;20034;-47
2022/01/09 06:20:18;;;;;;;0.40;0.40;;;3.70;99.90;;;;;;5014700;28;20042;-47
2022/01/09 06:22:44;;;;;;;0.50;0.50;;;3.70;99.90;;;;;;4998876;28;20088;-47
2022/01/09 06:25:10;;;;;;;0.50;0.50;;;3.60;99.90;;;;;;4998250;28;20029;-48
2022/01/09 06:27:36;;;;;;;0.50;0.50;;;3.60;99.90;;;;;;4998251;28;20097;-47
2022/01/09 06:30:07;;;;;;;0.50;0.50;;;3.60;99.90;;;;;;5000070;28;20133;-47
2022/01/09 06:32:32;;;;;;;0.40;0.40;;;3.60;99.90;;;;;;4993626;28;20034;-47
2022/01/09 06:34:58;;;;;;;0.50;0.50;;;3.50;99.90;;;;;;4995530;28;20036;-48
2022/01/09 06:37:24;;;;;;;0.45;0.45;;;3.50;99.90;;;;;;4996826;28;20088;-47
2022/01/09 06:39:49;;;;;;;0.50;0.50;;;3.50;99.90;;;;;;4998475;28;20038;-48
2022/01/09 06:42:15;;;;;;;0.50;0.50;;;3.40;99.90;;;;;;4996934;28;20049;-47
2022/01/09 06:44:40;;;;;;;0.55;0.55;;;3.30;99.90;;;;;;4999147;28;20033;-47
2022/01/09 06:47:07;;;;;;;0.40;0.40;;;3.30;99.90;;;;;;4997657;28;20046;-48
2022/01/09 06:49:34;;;;;;;0.50;0.50;;;3.20;99.90;;;;;;4996232;28;20076;-47
2022/01/09 06:52:00;;;;;;;0.50;0.50;;;3.20;99.90;;;;;;5000625;28;20072;-48
2022/01/09 06:54:25;;;;;;;0.50;0.50;;;3.10;99.90;;;;;;4998854;28;20033;-47
2022/01/09 06:56:51;;;;;;;0.47;0.47;;;3.00;99.90;;;;;;4999335;28;20045;-48
2022/01/09 06:59:16;;;;;;;0.50;0.50;;;3.00;99.90;;;;;;5001024;28;20490;-47
2022/01/09 07:01:42;;;;;;;0.43;0.43;;;3.00;99.90;;;;;;5001275;28;20062;-47
2022/01/09 07:04:07;;;;;;;0.50;0.50;;;3.00;99.90;;;;;;4999473;28;20033;-48
2022/01/09 07:06:35;;;;;;;0.50;0.50;;;3.00;99.90;;;;;;5000720;28;20483;-47
2022/01/09 07:09:01;;;;;;;0.60;0.60;;;3.00;99.90;;;;;;4998071;28;20026;-47
2022/01/09 07:11:27;;;;;;;0.50;0.50;;;2.90;99.90;;;;;;4999892;28;20061;-47
2022/01/09 07:13:52;;;;;;;0.55;0.55;;;2.90;99.90;;;;;;5000758;28;20185;-47
2022/01/09 07:16:18;;;;;;;0.60;0.60;;;2.80;99.90;;;;;;4999093;28;20034;-47
2022/01/09 07:18:43;;;;;;;0.50;0.50;;;2.70;99.90;;;;;;4996864;28;20982;-47
2022/01/09 07:21:09;;;;;;;0.60;0.60;;;2.60;99.90;;;;;;5002709;28;20025;-47
2022/01/09 07:23:35;;;;;;;0.50;0.50;;;2.60;99.90;;;;;;4994126;28;20064;-47
2022/01/09 07:26:00;;;;;;;0.50;0.50;;;2.60;99.90;;;;;;4996698;28;20057;-47
2022/01/09 07:28:26;;;;;;;0.50;0.50;;;2.60;99.90;;;;;;4999821;28;20064;-47
2022/01/09 07:30:52;;;;;;;0.50;0.50;;;2.60;99.90;;;;;;4998439;28;20072;-47
2022/01/09 07:33:17;;;;;;;1.65;0.68;;;2.60;99.90;;;;;;5014770;28;20030;-47
2022/01/09 07:35:43;;;;;;;0.60;0.60;;;2.60;99.90;;;;;;5015583;28;20033;-48
2022/01/09 07:38:09;;;;;;;0.50;0.50;;;2.60;99.90;;;;;;5014971;28;20041;-47
2022/01/09 07:40:35;;;;;;;0.50;0.50;;;2.60;99.90;;;;;;5017801;28;20763;-47
2022/01/09 07:43:01;;;;;;;0.50;0.50;;;2.60;99.90;;;;;;5016251;28;20076;-48
2022/01/09 07:45:27;;;;;;;0.60;0.60;;;2.60;99.90;;;;;;5015531;28;20025;-47
2022/01/09 07:47:54;;;;;;;0.52;0.52;;;2.60;99.90;;;;;;5015963;28;20030;-47
2022/01/09 07:50:22;;;;;;;0.68;0.68;;;2.70;99.90;;;;;;5014939;28;20025;-47
2022/01/09 07:52:48;;;;;;;0.50;0.50;;;2.70;99.90;;;;;;5017655;28;20155;-48
2022/01/09 07:55:14;;;;;;;0.60;0.60;;;2.70;99.90;;;;;;5018651;28;20151;-47
2022/01/09 07:57:40;;;;;;;0.70;0.70;;;2.70;99.90;;;;;;5016577;28;20069;-47
2022/01/09 08:00:08;;;;;;;0.70;0.70;;;2.70;99.90;;;;;;5017037;28;20041;-47
2022/01/09 08:02:34;;;;;;;0.70;0.70;;;2.70;99.90;;;;;;5014663;28;20042;-47
2022/01/09 08:05:00;;;;;;;0.65;0.65;;;2.70;99.90;;;;;;5019288;28;20041;-47
2022/01/09 08:07:26;;;;;;;0.70;0.70;;;2.70;99.90;;;;;;5017012;28;20474;-48
2022/01/09 08:09:51;;;;;;;0.60;0.60;;;2.70;99.90;;;;;;5014422;28;20678;-48
2022/01/09 08:12:17;;;;;;;1.65;0.80;;;2.70;99.90;;;;;;5013200;28;20040;-47
2022/01/09 08:14:43;;;;;;;0.60;0.60;;;2.70;99.90;;;;;;5011840;28;20047;-48
2022/01/09 08:17:09;;;;;;;0.65;0.65;;;2.80;99.90;;;;;;5017549;28;20038;-47
2022/01/09 08:19:35;;;;;;;0.50;0.50;;;2.80;99.90;;;;;;5020571;28;20545;-47
2022/01/09 08:22:01;;;;;;;0.60;0.60;;;2.70;99.90;;;;;;5013720;28;20069;-47
2022/01/09 08:24:27;;;;;;;0.60;0.60;;;2.80;99.90;;;;;;5013922;28;20038;-47
2022/01/09 08:26:53;;;;;;;0.80;0.80;;;2.80;99.90;;;;;;5021352;28;20049;-47
2022/01/09 08:29:18;;;;;;;0.60;0.60;;;2.80;99.90;;;;;;5015810;28;20408;-47
2022/01/09 08:31:44;;;;;;;0.60;0.60;;;2.80;99.90;;;;;;5008742;28;20030;-47
2022/01/09 08:34:10;;;;;;;0.60;0.60;;;2.80;99.90;;;;;;5009982;28;20042;-48
2022/01/09 08:36:35;;;;;;;0.65;0.65;;;2.80;99.90;;;;;;4995596;28;20031;-47
2022/01/09 08:39:03;;;;;;;0.73;0.73;;;2.80;99.90;;;;;;5001025;28;20036;-47
2022/01/09 08:41:29;;;;;;;0.70;0.70;;;2.90;99.90;;;;;;4991849;28;20879;-47
2022/01/09 08:43:55;;;;;;;2.47;0.70;;;2.90;99.90;;;;;;4995286;28;20049;-47
2022/01/09 08:46:20;;;;;;;0.63;0.60;;;2.90;99.90;;;;;;4996356;28;20037;-47
2022/01/09 08:48:46;;;;;;;0.60;0.60;;;2.90;99.90;;;;;;4995176;28;20034;-47
2022/01/09 08:51:12;;;;;;;0.70;0.70;;;2.90;99.90;;;;;;4995887;28;20482;-47
2022/01/09 08:53:37;;;;;;;0.63;0.63;;;2.90;99.90;;;;;;4996179;28;20026;-47
2022/01/09 08:56:05;;;;;;;0.60;0.60;;;3.00;99.90;;;;;;4990812;28;20681;-48
2022/01/09 08:58:32;;;;;;;0.70;0.70;;;3.00;99.90;;;;;;4997942;28;20034;-48
2022/01/09 09:00:58;;;;;;;0.68;0.68;;;3.00;99.90;;;;;;5002120;28;20843;-48
2022/01/09 09:03:24;;;;;;;0.70;0.70;;;3.00;99.90;;;;;;5012683;28;20033;-47
2022/01/09 09:05:50;;;;;;;1.60;0.73;;;3.10;99.90;;;;;;5017097;28;20026;-47
2022/01/09 09:08:16;;;;;;;0.52;0.52;;;3.10;99.90;;;;;;5015364;28;20549;-47
2022/01/09 09:10:42;;;;;;;0.65;0.65;;;3.10;99.90;;;;;;5016966;28;20137;-47
2022/01/09 09:13:07;;;;;;;0.60;0.60;;;3.10;99.90;;;;;;5017301;28;20079;-47
2022/01/09 09:15:33;;;;;;;0.63;0.63;;;3.10;99.90;;;;;;5021817;28;20034;-47
2022/01/09 09:17:59;;;;;;;0.70;0.70;;;3.20;99.90;;;;;;5019097;28;20068;-47
2022/01/09 09:20:25;;;;;;;0.57;0.57;;;3.10;99.90;;;;;;5019767;28;20038;-47
2022/01/09 09:22:51;;;;;;;0.65;0.65;;;3.20;99.90;;;;;;5019735;28;20087;-47
2022/01/09 09:25:17;;;;;;;1.85;0.60;;;3.20;99.90;;;;;;5020434;28;20044;-47
2022/01/09 09:27:44;;;;;;;1.00;1.00;;;3.20;99.90;;;;;;5018923;28;20044;-47
2022/01/09 09:30:10;;;;;;;6.07;1.65;;;3.20;99.90;;;;;;5021055;28;20030;-48
2022/01/09 09:32:37;;;;;;;0.60;0.60;;;3.20;99.90;;;;;;4996227;28;20049;-47
2022/01/09 09:35:05;;;;;;;1.00;0.90;;;3.20;99.90;;;;;;4993764;28;20156;-47
2022/01/09 09:37:31;;;;;;;0.80;0.80;;;3.30;99.90;;;;;;5000829;28;20553;-47
2022/01/09 09:39:57;;;;;;;0.70;0.70;;;3.30;99.90;;;;;;4999124;28;20038;-47
2022/01/09 09:42:22;;;;;;;0.68;0.68;;;3.30;99.90;;;;;;5001093;28;20042;-47
2022/01/09 09:44:48;;;;;;;2.53;0.90;;;3.40;99.90;;;;;;5000833;28;20052;-47
2022/01/09 09:47:21;;;;;;;0.85;0.85;;;3.40;99.90;;;;;;4995675;28;20030;-47
2022/01/09 09:49:48;;;;;;;1.10;0.60;;;3.40;99.90;;;;;;4997646;28;20973;-47
2022/01/09 09:52:18;;;;;;;0.70;0.70;;;3.40;99.90;;;;;;5001523;28;20035;-47
2022/01/09 09:54:49;;;;;;;0.60;0.60;;;3.50;99.90;;;;;;4999130;28;20136;-47
2022/01/09 09:57:15;;;;;;;0.75;0.75;;;3.50;99.90;;;;;;4997912;28;20022;-47
2022/01/09 09:59:40;;;;;;;0.70;0.70;;;3.50;99.90;;;;;;4996553;28;20049;-48
2022/01/09 10:02:17;;;;;;;0.70;0.70;;;3.50;99.90;;;;;;4998197;28;20038;-48
2022/01/09 10:05:01;;;;;;;5.38;0.70;;;3.50;99.90;;;;;;4998291;28;20137;-47
2022/01/09 10:07:27;;;;;;;0.98;0.98;;;3.50;99.90;;;;;;5001877;28;20052;-47
2022/01/09 10:09:58;;;;;;;1.52;0.80;;;3.50;99.90;;;;;;5000545;28;20033;-47
2022/01/09 10:12:28;;;;;;;0.80;0.80;;;3.50;99.90;;;;;;5000136;28;20042;-47
2022/01/09 10:15:00;;;;;;;1.80;0.70;;;3.50;99.90;;;;;;5004798;28;20670;-47
2022/01/09 10:17:27;;;;;;;2.28;0.82;;;3.50;99.90;;;;;;5002699;28;20034;-47
2022/01/09 10:19:58;;;;;;;0.60;0.60;;;3.50;99.90;;;;;;4996058;28;20590;-48
2022/01/09 10:22:29;;;;;;;1.35;0.95;;;3.50;99.90;;;;;;4996621;28;20188;-47
2022/01/09 10:24:56;;;;;;;2.53;0.90;;;3.50;99.90;;;;;;4999666;28;20643;-48
2022/01/09 10:27:36;;;;;;;4.15;0.80;;;3.50;99.90;;;;;;4999784;28;20038;-47
2022/01/09 10:30:04;;;;;;;1.05;1.05;;;3.60;99.90;;;;;;4998912;28;20029;-48
2022/01/09 10:32:31;;;;;;;1.47;1.07;;;3.60;99.90;;;;;;4999139;28;20849;-47
2022/01/09 10:35:16;;;;;;;2.78;0.80;;;3.60;99.90;;;;;;5001351;28;20299;-48
2022/01/09 10:37:49;;;;;;;0.80;0.80;;;3.70;99.90;;;;;;4998509;28;20104;-47
2022/01/09 10:40:23;;;;;;;0.90;0.90;;;3.70;99.90;;;;;;4999223;28;20030;-47
2022/01/09 10:43:10;;;;;;;1.05;0.70;;;3.70;99.90;;;;;;4998458;28;20030;-47
2022/01/09 10:45:41;;;;;;;0.70;0.70;;;3.80;99.90;;;;;;5001111;28;20090;-47
2022/01/09 10:48:21;;;;;;;3.40;0.90;;;3.90;99.90;;;;;;4991035;28;20543;-48
2022/01/09 10:50:48;;;;;;;0.73;0.73;;;3.90;99.90;;;;;;4992854;28;20446;-48
2022/01/09 10:53:25;;;;;;;0.90;0.70;;;3.90;99.90;;;;;;4995894;28;20057;-48
2022/01/09 10:56:02;;;;;;;1.00;1.00;;;4.00;99.90;;;;;;4984560;28;20038;-47
2022/01/09 10:58:28;;;;;;;1.40;1.30;;;4.00;99.90;;;;;;4987452;28;20030;-47
2022/01/09 11:01:18;;;;;;;0.98;0.98;;;4.00;99.90;;;;;;4990683;28;20771;-48
2022/01/09 11:03:48;;;;;;;5.10;1.00;;;4.00;99.90;;;;;;4991344;28;20065;-48
2022/01/09 11:06:14;;;;;;;0.63;0.63;;;4.00;99.90;;;;;;4993435;28;20410;-47
2022/01/09 11:08:41;;;;;;;0.60;0.60;;;4.10;99.90;;;;;;4992968;28;20088;-47
2022/01/09 11:11:17;;;;;;;3.33;1.48;;;4.10;99.90;;;;;;4992414;28;20414;-48
2022/01/09 11:13:44;;;;;;;0.93;0.90;;;4.10;99.90;;;;;;5003455;28;20030;-48
2022/01/09 11:16:33;;;;;;;1.65;0.88;;;4.10;99.90;;;;;;5003983;28;20751;-48
2022/01/09 11:19:06;;;;;;;0.82;0.82;;;4.20;99.90;;;;;;5001885;28;20029;-48
2022/01/09 11:21:32;;;;;;;1.85;0.98;;;4.20;99.90;;;;;;4999270;28;20032;-48
2022/01/09 11:24:23;;;;;;;2.47;0.90;;;4.20;99.90;;;;;;4995264;28;20065;-47
2022/01/09 11:27:16;;;;;;;1.10;1.10;;;4.20;99.90;;;;;;4999609;28;20026;-48
2022/01/09 11:30:00;;;;;;;1.02;0.85;;;4.20;99.90;;;;;;4989170;28;20096;-48
2022/01/09 11:32:49;;;;;;;1.00;1.00;;;4.20;99.90;;;;;;4995007;28;20062;-48
2022/01/09 11:35:42;;;;;;;1.00;0.90;;;4.20;99.90;;;;;;4995456;28;20495;-48
2022/01/09 11:38:26;;;;;;;0.95;0.82;;;4.20;99.90;;;;;;4992739;28;20049;-48
2022/01/09 11:40:52;;;;;;;0.88;0.73;;;4.20;99.90;;;;;;4992370;28;20124;-47
2022/01/09 11:43:20;;;;;;;9.48;1.15;;;4.20;99.90;;;;;;4987582;28;20072;-48
2022/01/09 11:46:00;;;;;;;2.10;1.10;;;4.20;99.90;;;;;;4994760;28;20122;-48
2022/01/09 11:48:44;;;;;;;1.13;1.00;;;4.20;99.90;;;;;;4991260;28;20044;-47
2022/01/09 11:51:12;;;;;;;1.52;0.85;;;4.20;99.90;;;;;;4997165;28;20034;-47
2022/01/09 11:53:59;;;;;;;1.02;0.90;;;4.20;99.90;;;;;;4987768;28;20065;-48
2022/01/09 11:56:57;;;;;;;0.90;0.90;;;4.20;99.90;;;;;;4991623;28;20387;-47
2022/01/09 11:59:30;;;;;;;2.05;1.10;;;4.20;99.90;;;;;;4995583;28;20419;-47
2022/01/09 12:01:59;;;;;;;4.18;1.20;;;4.20;99.90;;;;;;4994831;28;20053;-48
2022/01/09 12:04:31;;;;;;;3.13;1.00;;;4.20;99.90;;;;;;4996386;28;20033;-48
2022/01/09 12:06:58;;;;;;;1.08;1.08;;;4.20;99.90;;;;;;4994148;28;20040;-47
2022/01/09 12:09:34;;;;;;;1.50;1.30;;;4.10;99.90;;;;;;5001012;28;20061;-48
2022/01/09 12:12:09;;;;;;;0.98;0.98;;;4.10;99.90;;;;;;4995557;28;20026;-47
2022/01/09 12:15:09;;;;;;;1.30;1.00;;;4.20;99.90;;;;;;4997347;28;20030;-48
2022/01/09 12:17:45;;;;;;;0.98;0.90;;;4.20;99.90;;;;;;4995795;28;20155;-47
2022/01/09 12:20:14;;;;;;;0.90;0.90;;;4.10;99.90;;;;;;4996015;28;20030;-47
2022/01/09 12:22:43;;;;;;;0.85;0.80;;;4.10;99.90;;;;;;4995675;28;20068;-48
2022/01/09 12:25:33;;;;;;;0.70;0.70;;;4.10;99.90;;;;;;4989894;28;20084;-48
2022/01/09 12:28:08;;;;;;;2.88;1.05;;;4.10;99.90;;;;;;4995405;28;20029;-48
2022/01/09 12:30:48;;;;;;;2.95;0.90;;;4.10;99.90;;;;;;4992709;28;20483;-47
2022/01/09 12:33:27;;;;;;;2.47;0.95;;;4.10;99.90;;;;;;4992689;28;20033;-48
2022/01/09 12:36:05;;;;;;;1.15;1.05;;;4.10;99.90;;;;;;4991829;28;20050;-47
2022/01/09 12:38:33;;;;;;;2.80;1.05;;;4.10;99.90;;;;;;4991624;28;20671;-46
2022/01/09 12:41:04;;;;;;;2.75;1.48;;;4.10;99.90;;;;;;4994232;28;20112;-46
2022/01/09 12:43:32;;;;;;;4.72;1.20;;;4.10;99.90;;;;;;4992791;28;20041;-46
2022/01/09 12:45:58;;;;;;;2.72;0.90;;;4.20;99.90;;;;;;4988533;28;20030;-47
2022/01/09 12:48:27;;;;;;;1.33;1.08;;;4.20;99.90;;;;;;4996321;28;20033;-47
2022/01/09 12:50:54;;;;;;;1.35;1.25;;;4.20;99.90;;;;;;4993291;28;20096;-48
2022/01/09 12:53:27;;;;;;;1.00;1.00;;;4.20;99.90;;;;;;4993172;28;20643;-47
2022/01/09 12:56:00;;;;;;;5.97;1.10;;;4.20;99.90;;;;;;4986464;28;20112;-47
2022/01/09 12:58:48;;;;;;;1.80;0.90;;;4.20;99.90;;;;;;4996971;28;20057;-47
2022/01/09 13:01:19;;;;;;;1.55;1.00;;;4.20;99.90;;;;;;4997245;28;20125;-47
2022/01/09 13:03:46;;;;;;;2.50;0.82;;;4.30;99.90;;;;;;4993032;28;20039;-47
2022/01/09 13:06:14;;;;;;;1.13;0.90;;;4.20;99.90;;;;;;4991419;28;20116;-47